Time;durP1;ratioP1;P1;durP2;ratioP2;P2;SDS_P1;SDS_P2;PMS_P1;PMS_P2;Temp;Humidity;BMP_temperature;BMP_pressure;BME280_temperature;BME280_humidity;BME280_pressure;Samples;Min_cycle;Max_cycle;Signal;HPM_P1;HPM_P2
2021/12/25 00:01:11;;;;;;;7.17;3.70;;;8.60;76.80;;;;;;5028456;28;20202;-79
2021/12/25 00:03:40;;;;;;;8.30;3.97;;;8.60;77.00;;;;;;5024406;28;20903;-79
2021/12/25 00:06:08;;;;;;;7.10;3.80;;;8.50;77.20;;;;;;5028160;28;20194;-78
2021/12/25 00:08:37;;;;;;;7.60;4.03;;;8.50;77.50;;;;;;5033709;28;20619;-79
2021/12/25 00:11:07;;;;;;;6.87;3.87;;;8.50;77.60;;;;;;5037106;28;20199;-78
2021/12/25 00:13:36;;;;;;;6.57;3.43;;;8.40;77.70;;;;;;5040304;28;20680;-79
2021/12/25 00:16:05;;;;;;;8.90;3.53;;;8.40;77.70;;;;;;5033331;28;20219;-77
2021/12/25 00:18:35;;;;;;;9.40;4.23;;;8.40;77.90;;;;;;5030592;28;20198;-79
2021/12/25 00:21:04;;;;;;;9.83;4.30;;;8.40;77.80;;;;;;5029851;28;20846;-78
2021/12/25 00:23:32;;;;;;;7.33;3.90;;;8.40;77.90;;;;;;5023166;28;20716;-79
2021/12/25 00:26:05;;;;;;;7.97;4.40;;;8.40;77.70;;;;;;5029288;28;20198;-80
2021/12/25 00:28:53;;;;;;;12.17;3.80;;;8.40;77.70;;;;;;5036502;28;20187;-78
2021/12/25 00:31:30;;;;;;;8.90;3.53;;;8.40;77.70;;;;;;5023563;28;20195;-79
2021/12/25 00:34:01;;;;;;;6.60;3.93;;;8.40;77.70;;;;;;5033436;28;20435;-78
2021/12/25 00:36:30;;;;;;;6.63;3.53;;;8.30;77.70;;;;;;5023304;28;20212;-79
2021/12/25 00:38:58;;;;;;;5.90;3.73;;;8.30;78.80;;;;;;5030491;28;20187;-78
2021/12/25 00:41:26;;;;;;;7.10;4.00;;;8.20;78.10;;;;;;5035331;28;20211;-78
2021/12/25 00:43:55;;;;;;;6.50;4.00;;;8.20;78.10;;;;;;5022658;28;20191;-78
2021/12/25 00:46:23;;;;;;;8.00;3.93;;;8.20;78.20;;;;;;5024134;28;20206;-78
2021/12/25 00:48:52;;;;;;;8.03;3.70;;;8.10;78.40;;;;;;5031130;28;20192;-79
2021/12/25 00:51:22;;;;;;;7.03;3.97;;;8.10;78.40;;;;;;5018617;28;20211;-80
2021/12/25 00:53:50;;;;;;;9.07;3.80;;;8.10;78.50;;;;;;5014450;28;20926;-79
2021/12/25 00:56:19;;;;;;;8.57;3.67;;;8.00;78.70;;;;;;5033333;28;20675;-78
2021/12/25 00:58:47;;;;;;;8.53;3.93;;;8.00;79.70;;;;;;5023958;28;20947;-78
2021/12/25 01:01:15;;;;;;;8.20;3.90;;;7.90;79.20;;;;;;5027501;28;20202;-78
2021/12/25 01:03:44;;;;;;;6.87;4.17;;;7.90;79.30;;;;;;5030297;28;20278;-77
2021/12/25 01:06:12;;;;;;;8.40;3.90;;;7.90;79.40;;;;;;5023920;28;20197;-78
2021/12/25 01:08:42;;;;;;;8.33;4.20;;;7.90;79.50;;;;;;5030440;28;20499;-78
2021/12/25 01:11:11;;;;;;;7.80;3.67;;;7.90;79.60;;;;;;5033393;28;20221;-78
2021/12/25 01:13:45;;;;;;;8.13;4.00;;;7.90;79.60;;;;;;5030098;28;20559;-79
2021/12/25 01:16:27;;;;;;;7.87;3.67;;;7.90;79.50;;;;;;5022641;28;20224;-78
2021/12/25 01:22:00;;;;;;;8.53;3.77;;;7.90;79.70;;;;;;4997094;28;20195;-79
2021/12/25 01:24:50;;;;;;;7.53;4.07;;;7.90;80.00;;;;;;5032462;28;20225;-78
2021/12/25 01:30:10;;;;;;;9.13;3.83;;;7.90;80.10;;;;;;5020336;28;20187;-78
2021/12/25 01:35:41;;;;;;;8.10;3.90;;;8.00;80.00;;;;;;5014044;28;20533;-78
2021/12/25 01:38:23;;;;;;;6.53;3.57;;;8.00;80.20;;;;;;5026955;28;20229;-79
2021/12/25 01:41:12;;;;;;;8.33;3.77;;;7.90;80.20;;;;;;5037284;28;20193;-78
2021/12/25 01:49:24;;;;;;;8.80;4.27;;;8.00;80.60;;;;;;4948215;28;20586;-78
2021/12/25 01:51:52;;;;;;;7.47;4.03;;;8.00;80.70;;;;;;4995991;28;20919;-78
2021/12/25 01:54:21;;;;;;;7.80;3.87;;;8.00;80.90;;;;;;5029351;28;20200;-78
2021/12/25 01:56:50;;;;;;;6.53;3.77;;;8.00;81.00;;;;;;5022810;28;20666;-78
2021/12/25 01:59:19;;;;;;;6.07;3.53;;;8.00;81.10;;;;;;5025734;28;20249;-78
2021/12/25 02:01:47;;;;;;;6.97;3.73;;;8.00;80.90;;;;;;5025972;28;20290;-77
2021/12/25 02:04:16;;;;;;;7.80;3.93;;;8.00;81.10;;;;;;5022469;28;20198;-77
2021/12/25 02:06:44;;;;;;;8.53;3.93;;;8.10;81.10;;;;;;5023366;28;20198;-77
2021/12/25 02:09:12;;;;;;;7.20;4.17;;;8.10;81.10;;;;;;5025159;28;20202;-79
2021/12/25 02:11:41;;;;;;;8.67;4.17;;;8.10;81.10;;;;;;5028066;28;20187;-79
2021/12/25 02:14:10;;;;;;;6.83;4.20;;;8.10;80.90;;;;;;5033967;28;20215;-78
2021/12/25 02:16:51;;;;;;;9.90;3.77;;;8.10;80.90;;;;;;5025973;28;20225;-77
2021/12/25 02:19:32;;;;;;;7.93;4.10;;;8.10;81.80;;;;;;5025589;28;20374;-80
2021/12/25 02:22:03;;;;;;;6.83;3.77;;;8.10;80.90;;;;;;5029167;28;20183;-78
2021/12/25 02:24:32;;;;;;;8.00;4.27;;;8.10;80.90;;;;;;5018599;28;20234;-77
2021/12/25 02:27:00;;;;;;;8.70;3.90;;;8.10;80.90;;;;;;5010722;28;20211;-78
2021/12/25 02:29:28;;;;;;;7.23;4.00;;;8.10;80.80;;;;;;5027212;28;20204;-78
2021/12/25 02:31:58;;;;;;;5.83;3.47;;;8.10;80.80;;;;;;5041847;28;20206;-77
2021/12/25 02:34:26;;;;;;;6.50;3.73;;;8.10;80.80;;;;;;5028766;28;20279;-78
2021/12/25 02:36:55;;;;;;;7.40;4.20;;;8.10;80.80;;;;;;5038832;28;20225;-78
2021/12/25 02:39:25;;;;;;;5.90;3.50;;;8.10;80.60;;;;;;5026032;28;20196;-78
2021/12/25 02:41:53;;;;;;;6.33;3.57;;;8.10;80.60;;;;;;5028871;28;20203;-79
2021/12/25 02:44:24;;;;;;;8.33;3.83;;;8.10;80.80;;;;;;5032407;28;20218;-78
2021/12/25 02:46:55;;;;;;;6.93;3.40;;;8.10;80.90;;;;;;5026553;28;20264;-78
2021/12/25 02:49:24;;;;;;;6.30;3.63;;;8.10;81.10;;;;;;5027811;28;20195;-78
2021/12/25 02:51:53;;;;;;;7.97;3.87;;;8.10;81.10;;;;;;5025573;28;20199;-78
2021/12/25 02:54:21;;;;;;;7.43;4.00;;;8.00;81.10;;;;;;5031052;28;20229;-79
2021/12/25 02:56:51;;;;;;;6.73;3.70;;;8.00;81.20;;;;;;5029906;28;20229;-78
2021/12/25 02:59:19;;;;;;;9.23;4.18;;;8.00;81.40;;;;;;5027070;28;20442;-79
2021/12/25 03:02:06;;;;;;;6.10;3.40;;;8.00;81.40;;;;;;5025894;28;20238;-78
2021/12/25 03:04:37;;;;;;;6.17;3.33;;;8.00;81.60;;;;;;5022520;28;20249;-79
2021/12/25 03:07:06;;;;;;;8.80;3.73;;;8.00;81.50;;;;;;5027402;28;20203;-79
2021/12/25 03:09:35;;;;;;;6.17;3.33;;;8.00;81.50;;;;;;5031687;28;20187;-79
2021/12/25 03:12:08;;;;;;;7.37;3.73;;;8.00;81.50;;;;;;5027388;28;20195;-78
2021/12/25 03:14:39;;;;;;;6.90;4.00;;;8.00;81.60;;;;;;5028117;28;20240;-79
2021/12/25 03:17:08;;;;;;;6.47;3.20;;;8.00;81.50;;;;;;5027761;28;20221;-78
2021/12/25 03:19:36;;;;;;;6.60;3.70;;;8.00;81.60;;;;;;5029984;28;20194;-79
2021/12/25 03:22:05;;;;;;;5.67;3.60;;;8.00;81.50;;;;;;5032552;28;20514;-78
2021/12/25 03:24:34;;;;;;;7.13;3.53;;;8.00;81.50;;;;;;5028803;28;20220;-78
2021/12/25 03:27:04;;;;;;;7.43;3.40;;;8.00;81.30;;;;;;5033386;28;20206;-78
2021/12/25 03:29:39;;;;;;;6.57;3.33;;;8.00;81.40;;;;;;5032411;28;20194;-79
2021/12/25 03:32:08;;;;;;;7.40;3.60;;;8.00;81.50;;;;;;5028628;28;20840;-79
2021/12/25 03:34:37;;;;;;;6.03;3.60;;;8.00;81.50;;;;;;5030903;28;20200;-78
2021/12/25 03:37:06;;;;;;;5.00;3.00;;;8.00;81.60;;;;;;5035743;28;20695;-78
2021/12/25 03:39:34;;;;;;;7.47;3.47;;;8.00;81.70;;;;;;5024428;28;20577;-78
2021/12/25 03:42:04;;;;;;;5.70;3.53;;;8.00;81.80;;;;;;5038043;28;20199;-78
2021/12/25 03:44:35;;;;;;;7.47;3.97;;;8.00;81.70;;;;;;5038452;28;20214;-78
2021/12/25 03:47:12;;;;;;;5.53;3.47;;;7.90;81.80;;;;;;5031396;28;20203;-78
2021/12/25 03:58:05;;;;;;;6.90;3.83;;;7.90;82.00;;;;;;5036916;28;20222;-79
2021/12/25 04:00:35;;;;;;;6.63;3.73;;;7.90;82.20;;;;;;5036599;28;20195;-79
2021/12/25 04:03:09;;;;;;;6.43;3.63;;;7.90;82.20;;;;;;5012075;28;20191;-78
2021/12/25 04:05:40;;;;;;;7.57;4.10;;;7.80;82.40;;;;;;5022423;28;20193;-78
2021/12/25 04:08:11;;;;;;;6.10;3.23;;;7.80;82.40;;;;;;5027737;28;20190;-77
2021/12/25 04:10:42;;;;;;;6.17;3.43;;;7.80;82.50;;;;;;5027547;28;20296;-78
2021/12/25 04:13:14;;;;;;;6.77;3.83;;;7.80;82.50;;;;;;5037302;28;20206;-79
2021/12/25 04:15:43;;;;;;;5.63;3.70;;;7.80;82.60;;;;;;5029373;28;20195;-78
2021/12/25 04:18:12;;;;;;;6.70;3.93;;;7.80;82.70;;;;;;5033361;28;20292;-79
2021/12/25 04:20:41;;;;;;;6.90;3.80;;;7.80;82.70;;;;;;5036087;28;20210;-79
2021/12/25 04:23:16;;;;;;;6.80;4.20;;;7.80;82.80;;;;;;5031392;28;20889;-79
2021/12/25 04:25:44;;;;;;;5.87;3.13;;;7.80;82.80;;;;;;5026776;28;20198;-79
2021/12/25 04:28:20;;;;;;;6.17;3.60;;;7.80;83.00;;;;;;5035397;28;20193;-80
2021/12/25 04:31:07;;;;;;;5.20;3.37;;;7.80;83.20;;;;;;5013190;28;20188;-78
2021/12/25 05:01:39;;;;;;;6.43;3.57;;;7.70;83.70;;;;;;5014957;28;20191;-78
2021/12/25 05:01:56;;;;;;;5.47;3.20;;;7.70;84.00;;;;;;5027125;28;20195;-78
2021/12/25 05:04:29;;;;;;;10.40;3.70;;;7.70;83.90;;;;;;5032034;28;20198;-78
2021/12/25 05:06:57;;;;;;;7.37;4.03;;;7.70;83.90;;;;;;5041419;28;20202;-78
2021/12/25 05:09:25;;;;;;;7.57;4.67;;;7.70;83.80;;;;;;5035105;28;20826;-79
2021/12/25 05:11:54;;;;;;;6.03;3.33;;;7.70;83.80;;;;;;5035487;28;20195;-77
2021/12/25 05:14:22;;;;;;;8.67;3.67;;;7.70;84.70;;;;;;5024308;28;20215;-79
2021/12/25 05:16:52;;;;;;;7.60;3.93;;;7.70;84.00;;;;;;5024444;28;20197;-78
2021/12/25 05:19:21;;;;;;;7.67;3.93;;;7.70;83.90;;;;;;5035956;28;20219;-78
2021/12/25 05:21:49;;;;;;;5.83;3.60;;;7.70;83.70;;;;;;5036434;28;20593;-78
2021/12/25 05:24:18;;;;;;;6.67;3.63;;;7.80;83.80;;;;;;5033407;28;20253;-79
2021/12/25 05:26:46;;;;;;;7.57;3.73;;;7.80;83.80;;;;;;5024491;28;20191;-78
2021/12/25 05:29:22;;;;;;;8.70;4.13;;;7.80;83.70;;;;;;5026090;28;20203;-78
2021/12/25 05:31:53;;;;;;;8.87;4.37;;;7.80;83.80;;;;;;5027877;28;20707;-78
2021/12/25 05:34:21;;;;;;;6.37;3.57;;;7.80;83.70;;;;;;5035713;28;20202;-79
2021/12/25 05:36:51;;;;;;;5.83;3.60;;;7.80;83.70;;;;;;5026394;28;20199;-78
2021/12/25 05:39:20;;;;;;;6.97;3.70;;;7.80;83.80;;;;;;5023167;28;20620;-78
2021/12/25 05:41:49;;;;;;;7.67;4.27;;;7.80;83.80;;;;;;5014539;28;20194;-78
2021/12/25 05:44:17;;;;;;;8.57;3.30;;;7.80;83.80;;;;;;5029958;28;20204;-78
2021/12/25 05:46:46;;;;;;;9.83;4.90;;;7.80;84.90;;;;;;5033045;28;20199;-78
2021/12/25 05:49:16;;;;;;;7.93;3.90;;;7.80;84.10;;;;;;5025941;28;20190;-78
2021/12/25 05:51:44;;;;;;;10.00;4.17;;;7.80;84.10;;;;;;5022107;28;20190;-79
2021/12/25 05:54:13;;;;;;;6.33;3.67;;;7.80;84.10;;;;;;5038711;28;20683;-78
2021/12/25 05:56:42;;;;;;;6.27;3.60;;;7.80;84.20;;;;;;5034405;28;20191;-78
2021/12/25 05:59:10;;;;;;;7.70;4.07;;;7.80;84.30;;;;;;5033995;28;20237;-78
2021/12/25 06:01:40;;;;;;;7.10;3.87;;;7.70;84.60;;;;;;5022587;28;20198;-78
2021/12/25 06:04:08;;;;;;;8.43;3.70;;;7.80;84.60;;;;;;5026531;28;20218;-78
2021/12/25 06:06:39;;;;;;;7.43;3.83;;;7.80;84.70;;;;;;5030002;28;20199;-78
2021/12/25 06:09:08;;;;;;;5.63;3.47;;;7.70;84.70;;;;;;5034787;28;20739;-79
2021/12/25 06:11:37;;;;;;;7.00;3.70;;;7.80;84.80;;;;;;5038767;28;20203;-78
2021/12/25 06:14:09;;;;;;;8.00;4.07;;;7.70;84.80;;;;;;5028943;28;20683;-78
2021/12/25 06:16:39;;;;;;;9.60;4.30;;;7.80;84.90;;;;;;5033669;28;20285;-78
2021/12/25 06:19:08;;;;;;;6.93;4.03;;;7.70;85.20;;;;;;5039962;28;20236;-78
2021/12/25 06:21:38;;;;;;;9.97;4.40;;;7.70;85.30;;;;;;5028269;28;20230;-79
2021/12/25 06:24:06;;;;;;;8.57;4.03;;;7.70;85.50;;;;;;5037393;28;20223;-77
2021/12/25 06:26:36;;;;;;;8.10;3.93;;;7.70;85.70;;;;;;5037883;28;20199;-78
2021/12/25 06:29:05;;;;;;;6.70;4.07;;;7.70;86.00;;;;;;5036638;28;20198;-78
2021/12/25 06:31:33;;;;;;;6.97;3.67;;;7.70;86.10;;;;;;5034118;28;20199;-78
2021/12/25 06:34:03;;;;;;;6.57;3.67;;;7.70;86.00;;;;;;5033407;28;20639;-78
2021/12/25 06:36:32;;;;;;;6.73;3.67;;;7.70;85.90;;;;;;5041354;28;20195;-79
2021/12/25 06:39:02;;;;;;;7.27;4.23;;;7.70;86.10;;;;;;5022640;28;20216;-79
2021/12/25 06:41:30;;;;;;;6.97;3.70;;;7.70;87.10;;;;;;5034606;28;20195;-78
2021/12/25 06:43:59;;;;;;;7.30;4.20;;;7.80;86.20;;;;;;5029446;28;20963;-79
2021/12/25 06:46:27;;;;;;;8.93;3.83;;;7.80;86.70;;;;;;5036618;28;20215;-77
2021/12/25 06:48:55;;;;;;;5.23;3.47;;;7.80;86.60;;;;;;5027976;28;20194;-78
2021/12/25 06:51:24;;;;;;;9.90;4.23;;;7.70;86.60;;;;;;5042034;28;20599;-78
2021/12/25 06:53:52;;;;;;;9.25;4.85;;;7.80;86.50;;;;;;5030391;28;20385;-78
2021/12/25 06:56:22;;;;;;;8.20;5.00;;;7.80;86.60;;;;;;5024750;28;20633;-78
2021/12/25 06:58:50;;;;;;;8.43;4.20;;;7.80;86.50;;;;;;5026247;28;20234;-78
2021/12/25 07:01:19;;;;;;;8.13;4.67;;;7.90;86.50;;;;;;5029121;28;20233;-78
2021/12/25 07:03:47;;;;;;;8.47;4.07;;;7.90;86.40;;;;;;5032313;28;20226;-80
2021/12/25 07:06:16;;;;;;;7.95;4.60;;;7.90;86.30;;;;;;5025056;28;20433;-79
2021/12/25 07:08:45;;;;;;;12.53;4.33;;;8.00;86.40;;;;;;5020159;28;20591;-79
2021/12/25 07:11:13;;;;;;;7.90;4.03;;;8.00;86.30;;;;;;5025843;28;20215;-78
2021/12/25 07:13:45;;;;;;;6.43;4.00;;;8.10;86.20;;;;;;5023443;28;20192;-78
2021/12/25 07:16:14;;;;;;;6.70;3.97;;;8.10;86.10;;;;;;5020999;28;20214;-79
2021/12/25 07:18:43;;;;;;;9.23;4.20;;;8.20;86.00;;;;;;5024503;28;20891;-78
2021/12/25 07:21:12;;;;;;;5.83;3.70;;;8.20;86.00;;;;;;5022465;28;20675;-78
2021/12/25 07:23:40;;;;;;;8.07;4.33;;;8.20;86.00;;;;;;5028168;28;20237;-78
2021/12/25 07:26:09;;;;;;;7.87;4.57;;;8.30;86.00;;;;;;5033694;28;20197;-79
2021/12/25 07:28:37;;;;;;;7.87;4.10;;;8.40;86.00;;;;;;5021429;28;20675;-79
2021/12/25 07:31:08;;;;;;;6.33;3.80;;;8.40;85.80;;;;;;5026132;28;20196;-78
2021/12/25 07:33:40;;;;;;;9.23;4.00;;;8.40;85.80;;;;;;5044819;28;20191;-78
2021/12/25 07:36:10;;;;;;;7.20;3.80;;;8.50;85.80;;;;;;5032744;28;20859;-80
2021/12/25 07:38:38;;;;;;;6.20;3.30;;;8.50;85.80;;;;;;5036845;28;20681;-79
2021/12/25 07:41:07;;;;;;;8.77;3.83;;;8.60;86.00;;;;;;5015487;28;20202;-80
2021/12/25 07:43:35;;;;;;;8.00;3.27;;;8.70;85.80;;;;;;5026040;28;20290;-79
2021/12/25 07:46:04;;;;;;;5.50;3.23;;;8.70;85.80;;;;;;5027003;28;20200;-80
2021/12/25 07:48:34;;;;;;;8.63;3.60;;;8.80;85.70;;;;;;5023764;28;20231;-79
2021/12/25 07:51:04;;;;;;;5.93;3.20;;;8.90;85.50;;;;;;5030827;28;20187;-79
2021/12/25 07:53:32;;;;;;;6.37;3.90;;;8.90;85.40;;;;;;5027670;28;20191;-80
2021/12/25 07:56:01;;;;;;;6.23;4.03;;;9.00;85.40;;;;;;5037239;28;20200;-80
2021/12/25 07:58:29;;;;;;;6.20;3.50;;;9.00;85.20;;;;;;5025134;28;20657;-79
2021/12/25 08:00:58;;;;;;;6.33;3.43;;;9.10;85.20;;;;;;5027562;28;20234;-79
2021/12/25 08:03:26;;;;;;;6.90;3.70;;;9.20;85.20;;;;;;5029363;28;20195;-80
2021/12/25 08:05:56;;;;;;;7.93;3.70;;;9.30;85.00;;;;;;5037590;28;20227;-79
2021/12/25 08:08:24;;;;;;;6.33;3.60;;;9.40;84.90;;;;;;5025408;28;20206;-79
2021/12/25 08:10:53;;;;;;;7.43;3.60;;;9.40;84.60;;;;;;5024182;28;20192;-79
2021/12/25 08:13:21;;;;;;;10.00;3.40;;;9.50;84.40;;;;;;5024158;28;20195;-79
2021/12/25 08:15:50;;;;;;;6.67;3.43;;;9.60;84.30;;;;;;5026027;28;20195;-79
2021/12/25 08:18:18;;;;;;;5.80;3.33;;;9.70;84.20;;;;;;5023068;28;21015;-79
2021/12/25 08:20:47;;;;;;;5.80;3.00;;;9.70;84.10;;;;;;5023986;28;20225;-79
2021/12/25 08:23:16;;;;;;;6.77;3.30;;;9.80;84.00;;;;;;5040297;28;20305;-79
2021/12/25 08:25:45;;;;;;;5.40;3.37;;;9.80;83.80;;;;;;5032308;28;20239;-81
2021/12/25 08:28:13;;;;;;;6.57;3.37;;;9.90;83.60;;;;;;5042328;28;20210;-79
2021/12/25 08:30:42;;;;;;;6.53;3.17;;;10.00;83.60;;;;;;5021275;28;20699;-79
2021/12/25 08:33:10;;;;;;;7.50;3.53;;;10.10;83.50;;;;;;5033185;28;20198;-79
2021/12/25 08:35:38;;;;;;;6.73;3.40;;;10.20;83.20;;;;;;5022868;28;20206;-80
2021/12/25 08:38:07;;;;;;;8.63;3.63;;;10.20;82.70;;;;;;5022815;28;20650;-79
2021/12/25 08:40:37;;;;;;;10.40;3.90;;;10.30;82.50;;;;;;5035529;28;20218;-80
2021/12/25 08:43:07;;;;;;;7.03;4.10;;;10.30;82.20;;;;;;5037598;28;20919;-78
2021/12/25 08:45:45;;;;;;;8.20;3.87;;;10.40;82.20;;;;;;5029758;28;20199;-79
2021/12/25 08:48:18;;;;;;;7.87;3.70;;;10.50;82.00;;;;;;5014464;28;20854;-79
2021/12/25 08:50:49;;;;;;;8.10;3.60;;;10.50;81.90;;;;;;5029934;28;20202;-79
2021/12/25 08:53:18;;;;;;;8.97;4.13;;;10.50;81.70;;;;;;5021101;28;20188;-80
2021/12/25 08:55:50;;;;;;;7.90;3.77;;;10.50;81.60;;;;;;5031981;28;20203;-78
2021/12/25 08:58:20;;;;;;;8.73;4.33;;;10.50;81.40;;;;;;5016559;28;20646;-79
2021/12/25 09:00:54;;;;;;;9.53;4.47;;;10.50;81.50;;;;;;5018018;28;21425;-79
2021/12/25 09:03:25;;;;;;;7.33;4.43;;;10.60;81.40;;;;;;5026111;28;20188;-78
2021/12/25 09:05:55;;;;;;;9.33;5.20;;;10.60;81.40;;;;;;5003615;28;20207;-79
2021/12/25 09:08:23;;;;;;;9.37;4.47;;;10.60;81.20;;;;;;5023777;28;20552;-79
2021/12/25 09:10:54;;;;;;;11.93;4.07;;;10.70;81.20;;;;;;5023446;28;20598;-79
2021/12/25 09:13:23;;;;;;;8.13;4.07;;;10.70;81.10;;;;;;5036187;28;20692;-79
2021/12/25 09:15:52;;;;;;;9.53;5.27;;;10.70;80.90;;;;;;5022608;28;21227;-79
2021/12/25 09:18:21;;;;;;;8.73;4.67;;;10.80;81.10;;;;;;5025744;28;20260;-79
2021/12/25 09:20:49;;;;;;;7.03;4.00;;;10.80;80.80;;;;;;5025238;28;20227;-80
2021/12/25 09:23:18;;;;;;;7.43;4.60;;;10.90;81.70;;;;;;5023546;28;20216;-78
2021/12/25 09:25:46;;;;;;;8.57;4.07;;;11.00;80.60;;;;;;5026255;28;20868;-78
2021/12/25 09:28:18;;;;;;;9.10;4.37;;;11.10;80.60;;;;;;5021306;28;20199;-81
2021/12/25 09:30:47;;;;;;;9.00;4.07;;;11.10;80.20;;;;;;5010948;28;20225;-78
2021/12/25 09:33:15;;;;;;;8.57;4.37;;;11.20;80.30;;;;;;5037984;28;20194;-79
2021/12/25 09:35:43;;;;;;;7.20;4.17;;;11.30;79.90;;;;;;5026456;28;20700;-79
2021/12/25 09:38:12;;;;;;;6.88;3.70;;;11.40;80.10;;;;;;5026632;28;20437;-78
2021/12/25 09:40:40;;;;;;;8.63;3.63;;;11.40;79.90;;;;;;5025356;28;20218;-77
2021/12/25 09:43:09;;;;;;;12.60;4.00;;;11.50;79.40;;;;;;5023452;28;20198;-78
2021/12/25 09:45:39;;;;;;;8.10;3.80;;;11.60;79.50;;;;;;5021422;28;20685;-78
2021/12/25 09:48:07;;;;;;;7.37;3.50;;;11.70;79.50;;;;;;5018055;28;20239;-80
2021/12/25 09:50:36;;;;;;;9.40;4.53;;;11.70;79.10;;;;;;5010972;28;20222;-80
2021/12/25 09:53:07;;;;;;;8.13;3.77;;;11.80;78.90;;;;;;5020686;28;20202;-80
2021/12/25 09:55:38;;;;;;;7.07;3.80;;;11.90;78.60;;;;;;5020896;28;20224;-80
2021/12/25 09:58:07;;;;;;;7.33;3.57;;;11.90;78.50;;;;;;5032394;28;20191;-79
2021/12/25 10:00:41;;;;;;;7.70;3.53;;;12.00;78.30;;;;;;5022053;28;20202;-77
2021/12/25 10:03:23;;;;;;;6.70;3.70;;;12.10;78.00;;;;;;5016884;28;20286;-78
2021/12/25 10:05:53;;;;;;;7.03;4.00;;;12.20;78.00;;;;;;5023153;28;20278;-79
2021/12/25 10:08:26;;;;;;;4.97;3.07;;;12.30;77.90;;;;;;5023597;28;20208;-77
2021/12/25 10:11:00;;;;;;;7.00;3.10;;;12.30;77.60;;;;;;5022849;28;20214;-77
2021/12/25 10:13:30;;;;;;;9.43;3.47;;;12.40;77.40;;;;;;5022742;28;20187;-77
2021/12/25 10:16:18;;;;;;;7.00;3.20;;;12.50;77.30;;;;;;5025146;28;20842;-77
2021/12/25 10:18:47;;;;;;;5.93;3.30;;;12.60;77.10;;;;;;5030685;28;20234;-76
2021/12/25 10:21:21;;;;;;;8.27;3.23;;;12.70;77.10;;;;;;5042769;28;20199;-75
2021/12/25 10:24:07;;;;;;;7.87;3.93;;;12.80;77.00;;;;;;5035835;28;20716;-75
2021/12/25 10:26:38;;;;;;;6.97;3.47;;;12.90;76.20;;;;;;5028689;28;20248;-75
2021/12/25 10:29:20;;;;;;;7.13;3.50;;;13.00;76.30;;;;;;5023591;28;20689;-76
2021/12/25 10:31:51;;;;;;;7.60;3.50;;;13.10;76.00;;;;;;5022592;28;20207;-76
2021/12/25 10:34:21;;;;;;;10.00;3.40;;;13.20;75.80;;;;;;5023175;28;20246;-76
2021/12/25 10:36:50;;;;;;;8.13;3.57;;;13.30;75.80;;;;;;5020906;28;20203;-75
2021/12/25 10:39:21;;;;;;;5.70;3.17;;;13.30;75.80;;;;;;5019834;28;20203;-76
2021/12/25 10:41:54;;;;;;;9.93;3.70;;;13.40;76.10;;;;;;5021600;28;20184;-75
2021/12/25 10:44:28;;;;;;;6.90;2.73;;;13.50;75.50;;;;;;5023853;28;20196;-75
2021/12/25 10:46:59;;;;;;;5.33;2.80;;;13.50;75.40;;;;;;5009971;28;20188;-75
2021/12/25 10:49:30;;;;;;;5.97;2.60;;;13.60;74.40;;;;;;5021013;28;20713;-75
2021/12/25 10:52:12;;;;;;;4.63;2.33;;;13.60;74.10;;;;;;5031626;28;20246;-75
2021/12/25 10:54:43;;;;;;;4.60;2.30;;;13.60;74.10;;;;;;5026193;28;20193;-75
2021/12/25 10:57:12;;;;;;;4.70;2.50;;;13.70;73.80;;;;;;5033568;28;20196;-74
2021/12/25 10:59:45;;;;;;;6.13;2.20;;;13.70;73.70;;;;;;5026700;28;20184;-75
2021/12/25 11:05:25;;;;;;;4.17;2.47;;;13.80;74.00;;;;;;5039318;27;1401861;-79
2021/12/25 11:08:05;;;;;;;8.17;3.00;;;14.00;73.30;;;;;;5093279;28;20417;-76
2021/12/25 11:10:43;;;;;;;4.20;2.67;;;14.10;73.30;;;;;;5093759;28;20856;-77
2021/12/25 11:13:20;;;;;;;10.33;2.80;;;14.20;73.10;;;;;;5089962;28;20208;-77
2021/12/25 11:15:49;;;;;;;5.13;2.23;;;14.30;73.00;;;;;;5092405;28;20558;-78
2021/12/25 11:18:19;;;;;;;8.77;2.30;;;14.40;73.00;;;;;;5101196;28;20203;-78
2021/12/25 11:20:48;;;;;;;4.80;2.20;;;14.40;72.90;;;;;;5100588;28;20194;-77
2021/12/25 11:23:17;;;;;;;6.83;2.80;;;14.50;73.20;;;;;;5099884;28;20257;-78
2021/12/25 11:25:46;;;;;;;5.73;1.97;;;14.60;72.90;;;;;;5080856;28;20182;-77
2021/12/25 11:28:18;;;;;;;8.90;2.40;;;14.70;72.50;;;;;;5080402;28;20194;-78
2021/12/25 11:30:49;;;;;;;5.10;2.00;;;14.70;72.10;;;;;;5092051;28;20189;-77
2021/12/25 11:33:18;;;;;;;4.33;2.10;;;14.80;72.20;;;;;;5100762;28;20188;-78
2021/12/25 11:35:48;;;;;;;5.20;2.53;;;14.90;71.80;;;;;;5100682;28;20193;-77
2021/12/25 11:38:16;;;;;;;4.67;2.40;;;15.00;71.50;;;;;;5081997;28;20182;-78
2021/12/25 11:40:50;;;;;;;5.53;2.03;;;15.10;71.50;;;;;;5085437;28;20193;-77
2021/12/25 11:43:35;;;;;;;3.37;1.97;;;15.20;71.20;;;;;;5100279;28;20204;-77
2021/12/25 11:46:06;;;;;;;4.87;2.00;;;15.20;71.00;;;;;;5100129;28;20185;-76
2021/12/25 11:48:36;;;;;;;5.53;2.03;;;15.30;71.00;;;;;;5084588;28;20280;-76
2021/12/25 11:51:07;;;;;;;6.13;2.20;;;15.50;71.10;;;;;;5099345;28;20209;-77
2021/12/25 11:53:54;;;;;;;6.83;2.90;;;15.50;70.70;;;;;;5099818;28;20177;-75
2021/12/25 11:56:36;;;;;;;8.97;3.17;;;15.60;70.10;;;;;;5099911;28;20193;-78
2021/12/25 11:59:12;;;;;;;5.03;2.43;;;15.70;70.00;;;;;;5092822;28;20193;-77
2021/12/25 12:01:42;;;;;;;5.07;2.47;;;15.70;69.80;;;;;;5087081;28;20713;-78
2021/12/25 12:04:16;;;;;;;4.23;2.30;;;15.80;69.50;;;;;;5093090;28;20324;-78
2021/12/25 12:07:02;;;;;;;7.47;2.70;;;15.80;69.50;;;;;;5084433;28;20178;-78
2021/12/25 12:09:32;;;;;;;6.63;2.90;;;15.90;69.50;;;;;;5095453;28;20185;-79
2021/12/25 12:12:15;;;;;;;7.20;2.20;;;15.90;69.20;;;;;;5095873;28;20224;-79
2021/12/25 12:14:45;;;;;;;7.47;1.93;;;16.00;70.00;;;;;;5082347;28;20762;-78
2021/12/25 12:17:30;;;;;;;3.83;1.63;;;16.00;68.90;;;;;;5086690;28;20247;-79
2021/12/25 12:20:03;;;;;;;6.37;2.33;;;16.00;68.80;;;;;;5085604;28;20201;-78
2021/12/25 12:23:18;;;;;;;5.20;2.20;;;16.00;69.00;;;;;;5070131;28;20713;-77
2021/12/25 12:26:00;;;;;;;6.20;2.13;;;16.00;68.80;;;;;;5084814;28;20655;-80
2021/12/25 12:28:52;;;;;;;4.40;1.90;;;16.00;68.50;;;;;;5072234;28;20695;-79
2021/12/25 12:31:48;;;;;;;6.07;2.10;;;16.10;69.20;;;;;;5063518;28;20198;-79
2021/12/25 12:34:35;;;;;;;5.00;2.23;;;16.20;68.90;;;;;;5040941;28;20193;-78
2021/12/25 12:37:26;;;;;;;3.97;2.07;;;16.20;68.80;;;;;;5070411;28;20209;-78
2021/12/25 12:40:24;;;;;;;4.13;2.30;;;16.20;68.80;;;;;;5084343;28;20190;-79
2021/12/25 12:42:59;;;;;;;5.27;2.13;;;16.20;68.70;;;;;;5078414;28;20190;-82
2021/12/25 12:45:32;;;;;;;6.07;2.37;;;16.30;69.00;;;;;;5081776;28;20205;-78
2021/12/25 12:48:18;;;;;;;3.77;2.10;;;16.30;69.10;;;;;;5084861;28;20619;-79
2021/12/25 12:50:49;;;;;;;4.73;2.07;;;16.40;68.80;;;;;;5072727;28;20183;-78
2021/12/25 12:53:19;;;;;;;5.70;2.33;;;16.40;68.80;;;;;;5081648;28;20697;-80
2021/12/25 12:55:50;;;;;;;3.80;2.13;;;16.40;68.70;;;;;;5082158;28;20224;-79
2021/12/25 12:58:22;;;;;;;7.10;2.63;;;16.50;68.80;;;;;;5084917;28;20174;-80
2021/12/25 13:00:53;;;;;;;3.87;2.00;;;16.60;69.00;;;;;;5076621;28;20200;-79
2021/12/25 13:03:23;;;;;;;5.97;2.87;;;16.60;68.40;;;;;;5076926;28;20249;-78
2021/12/25 13:05:56;;;;;;;5.00;2.30;;;16.70;68.40;;;;;;5085318;28;20206;-78
2021/12/25 13:08:29;;;;;;;3.83;1.57;;;16.80;68.70;;;;;;5082108;28;20189;-77
2021/12/25 13:11:07;;;;;;;3.87;1.97;;;16.90;68.10;;;;;;5084019;28;20754;-77
2021/12/25 13:13:40;;;;;;;2.97;1.88;;;17.10;68.70;;;;;;5081828;28;20205;-77
2021/12/25 13:16:11;;;;;;;4.25;1.88;;;17.40;68.20;;;;;;5082630;28;20220;-77
2021/12/25 13:18:42;;;;;;;4.40;1.80;;;17.50;67.00;;;;;;5085860;28;20197;-76
2021/12/25 13:21:14;;;;;;;4.85;2.25;;;17.70;66.30;;;;;;5082553;28;20194;-77
2021/12/25 13:23:49;;;;;;;3.85;1.70;;;17.80;65.50;;;;;;5085495;28;20190;-79
2021/12/25 13:26:21;;;;;;;3.80;1.67;;;17.90;65.10;;;;;;5080062;28;20276;-79
2021/12/25 13:28:53;;;;;;;4.45;1.90;;;18.30;64.40;;;;;;5082095;28;20204;-78
2021/12/25 13:31:24;;;;;;;5.03;2.15;;;19.10;62.20;;;;;;5078961;28;20196;-77
2021/12/25 13:33:55;;;;;;;5.63;3.00;;;19.30;61.10;;;;;;5085094;28;20650;-77
2021/12/25 13:36:25;;;;;;;4.32;2.15;;;20.90;58.90;;;;;;5084943;28;20239;-78
2021/12/25 13:38:56;;;;;;;3.90;2.20;;;21.50;56.00;;;;;;5084522;28;20185;-80
2021/12/25 13:41:34;;;;;;;4.95;2.50;;;21.00;56.40;;;;;;5082559;28;20193;-79
2021/12/25 13:44:13;;;;;;;4.45;1.95;;;21.00;56.50;;;;;;5084306;28;20181;-77
2021/12/25 13:46:45;;;;;;;4.15;2.40;;;20.40;57.10;;;;;;5084879;28;21970;-78
2021/12/25 13:49:32;;;;;;;6.78;2.72;;;20.20;57.80;;;;;;5079653;28;20193;-78
2021/12/25 13:52:04;;;;;;;7.35;2.85;;;19.90;57.90;;;;;;5080403;28;20587;-77
2021/12/25 13:54:34;;;;;;;4.97;2.42;;;19.50;58.90;;;;;;5080244;28;20193;-78
2021/12/25 13:57:04;;;;;;;4.43;1.87;;;19.10;59.90;;;;;;5069462;28;21859;-78
2021/12/25 13:59:33;;;;;;;6.13;3.17;;;18.80;60.20;;;;;;5070857;28;20238;-77
2021/12/25 14:02:05;;;;;;;7.03;2.67;;;18.50;60.90;;;;;;5079505;28;20228;-77
2021/12/25 14:04:34;;;;;;;9.97;3.60;;;18.30;61.50;;;;;;5082987;28;20785;-76
2021/12/25 14:07:03;;;;;;;11.37;4.50;;;18.00;61.90;;;;;;5079121;28;20190;-76